sensor_id;sensor_type;location;lat;lon;timestamp;temperature;humidity
20932;DHT22;10625;49.054;9.348;2022-11-15T05:44:07;6.60;99.90
20932;DHT22;10625;49.054;9.348;2022-11-15T05:46:36;6.50;99.90
20932;DHT22;10625;49.054;9.348;2022-11-15T05:49:07;6.20;99.90
20932;DHT22;10625;49.054;9.348;2022-11-15T05:51:35;6.00;99.90
20932;DHT22;10625;49.054;9.348;2022-11-15T05:54:03;5.90;99.90
20932;DHT22;10625;49.054;9.348;2022-11-15T05:56:30;5.70;99.90
20932;DHT22;10625;49.054;9.348;2022-11-15T05:58:58;5.70;99.90
20932;DHT22;10625;49.054;9.348;2022-11-15T06:01:26;5.60;99.90
20932;DHT22;10625;49.054;9.348;2022-11-15T06:03:54;5.50;99.90
20932;DHT22;10625;49.054;9.348;2022-11-15T06:06:22;5.40;99.90
20932;DHT22;10625;49.054;9.348;2022-11-15T06:08:49;5.30;99.90
20932;DHT22;10625;49.054;9.348;2022-11-15T06:11:17;5.30;99.90
20932;DHT22;10625;49.054;9.348;2022-11-15T06:13:44;5.40;99.90
20932;DHT22;10625;49.054;9.348;2022-11-15T06:16:12;5.40;99.90
20932;DHT22;10625;49.054;9.348;2022-11-15T06:18:39;5.30;99.90
20932;DHT22;10625;49.054;9.348;2022-11-15T06:21:07;5.30;99.90
20932;DHT22;10625;49.054;9.348;2022-11-15T06:23:35;5.30;99.90
20932;DHT22;10625;49.054;9.348;2022-11-15T06:26:03;5.30;99.90
20932;DHT22;10625;49.054;9.348;2022-11-15T06:28:32;5.20;99.90
20932;DHT22;10625;49.054;9.348;2022-11-15T06:31:04;5.20;99.90
20932;DHT22;10625;49.054;9.348;2022-11-15T06:33:32;5.20;99.90
20932;DHT22;10625;49.054;9.348;2022-11-15T06:36:02;5.20;99.90
20932;DHT22;10625;49.054;9.348;2022-11-15T06:38:30;5.10;99.90
20932;DHT22;10625;49.054;9.348;2022-11-15T06:41:09;5.10;99.90
20932;DHT22;10625;49.054;9.348;2022-11-15T06:43:37;5.00;99.90
20932;DHT22;10625;49.054;9.348;2022-11-15T06:46:06;5.00;99.90
20932;DHT22;10625;49.054;9.348;2022-11-15T06:48:34;5.00;99.90
20932;DHT22;10625;49.054;9.348;2022-11-15T06:51:03;5.00;99.90
20932;DHT22;10625;49.054;9.348;2022-11-15T06:53:31;5.00;99.90
20932;DHT22;10625;49.054;9.348;2022-11-15T06:56:01;5.10;99.90
20932;DHT22;10625;49.054;9.348;2022-11-15T06:58:29;5.10;99.90
20932;DHT22;10625;49.054;9.348;2022-11-15T07:01:05;5.10;99.90
20932;DHT22;10625;49.054;9.348;2022-11-15T07:03:42;5.00;99.90
20932;DHT22;10625;49.054;9.348;2022-11-15T07:06:06;5.10;99.90
20932;DHT22;10625;49.054;9.348;2022-11-15T07:08:34;5.10;99.90
20932;DHT22;10625;49.054;9.348;2022-11-15T07:11:04;5.00;99.90
20932;DHT22;10625;49.054;9.348;2022-11-15T07:13:33;5.00;99.90
20932;DHT22;10625;49.054;9.348;2022-11-15T07:16:06;5.00;99.90
20932;DHT22;10625;49.054;9.348;2022-11-15T07:18:36;5.00;99.90
20932;DHT22;10625;49.054;9.348;2022-11-15T07:21:05;5.00;99.90
20932;DHT22;10625;49.054;9.348;2022-11-15T07:23:33;5.00;99.90
20932;DHT22;10625;49.054;9.348;2022-11-15T07:26:02;5.00;99.90
20932;DHT22;10625;49.054;9.348;2022-11-15T07:28:30;5.10;99.90
20932;DHT22;10625;49.054;9.348;2022-11-15T07:30:57;5.10;99.90
20932;DHT22;10625;49.054;9.348;2022-11-15T07:33:25;5.10;99.90
20932;DHT22;10625;49.054;9.348;2022-11-15T07:35:52;5.10;99.90
20932;DHT22;10625;49.054;9.348;2022-11-15T07:38:20;5.10;99.90
20932;DHT22;10625;49.054;9.348;2022-11-15T07:40:48;5.20;99.90
20932;DHT22;10625;49.054;9.348;2022-11-15T07:43:17;5.30;99.90
20932;DHT22;10625;49.054;9.348;2022-11-15T07:45:45;5.40;99.90
20932;DHT22;10625;49.054;9.348;2022-11-15T07:48:12;5.50;99.90
20932;DHT22;10625;49.054;9.348;2022-11-15T07:50:43;5.60;99.90
20932;DHT22;10625;49.054;9.348;2022-11-15T07:53:10;5.60;99.90
20932;DHT22;10625;49.054;9.348;2022-11-15T07:55:41;5.70;99.90
20932;DHT22;10625;49.054;9.348;2022-11-15T07:58:12;5.80;99.90
20932;DHT22;10625;49.054;9.348;2022-11-15T08:00:39;5.80;99.90
20932;DHT22;10625;49.054;9.348;2022-11-15T08:03:15;6.00;99.90
20932;DHT22;10625;49.054;9.348;2022-11-15T08:05:43;6.20;99.90
20932;DHT22;10625;49.054;9.348;2022-11-15T08:08:11;6.00;99.90
